createdAt,value
2018-08-13T00:00:22.397Z,97880.55
2018-08-13T00:02:34.634Z,97885.23
2018-08-13T00:04:46.914Z,97886.59
2018-08-13T00:06:59.093Z,97885.38
2018-08-13T00:09:11.370Z,97890.92
2018-08-13T00:11:23.594Z,97881.27
2018-08-13T00:13:35.812Z,97883.31
2018-08-13T00:15:48.034Z,97877.67
2018-08-13T00:18:00.291Z,97877.19
2018-08-13T00:20:12.535Z,97875.88
2018-08-13T00:22:24.770Z,97863.95
2018-08-13T00:24:37.002Z,97867.06
2018-08-13T00:26:49.250Z,97866.78
2018-08-13T00:29:01.498Z,97860.01
2018-08-13T00:31:13.698Z,97863.41
2018-08-13T00:33:25.993Z,97855.36
2018-08-13T00:35:38.386Z,97852.91
2018-08-13T00:37:50.936Z,97845.23
2018-08-13T00:40:04.127Z,97850.59
2018-08-13T00:42:16.379Z,97853.14
2018-08-13T00:44:28.671Z,97850.18
2018-08-13T00:46:40.897Z,97853.30
2018-08-13T00:48:53.138Z,97850.95
2018-08-13T00:51:05.491Z,97852.75
2018-08-13T00:53:17.745Z,97853.23
2018-08-13T00:55:30.273Z,97848.27
2018-08-13T00:57:42.514Z,97849.86
2018-08-13T00:59:54.736Z,97847.89
2018-08-13T01:02:07.016Z,97845.77
2018-08-13T01:04:19.251Z,97846.44
2018-08-13T01:06:31.482Z,97842.50
2018-08-13T01:08:43.755Z,97837.25
2018-08-13T01:10:55.998Z,97841.39
2018-08-13T01:13:08.229Z,97839.21
2018-08-13T01:15:20.712Z,97830.30
2018-08-13T01:17:32.994Z,97829.55
2018-08-13T01:19:45.199Z,97827.52
2018-08-13T01:21:57.449Z,97823.27
2018-08-13T01:24:09.674Z,97818.33
2018-08-13T01:26:21.919Z,97821.57
2018-08-13T01:28:34.144Z,97816.66
2018-08-13T01:30:46.437Z,97815.29
2018-08-13T01:32:58.678Z,97823.92
2018-08-13T01:35:10.936Z,97821.52
2018-08-13T01:37:23.326Z,97819.02
2018-08-13T01:39:35.575Z,97817.58
2018-08-13T01:41:47.813Z,97812.95
2018-08-13T01:44:00.065Z,97823.44
2018-08-13T01:46:12.282Z,97826.28
2018-08-13T01:48:24.529Z,97821.80
2018-08-13T01:50:36.769Z,97816.38
2018-08-13T01:52:48.981Z,97820.38
2018-08-13T01:55:01.242Z,97818.73
2018-08-13T01:57:13.644Z,97820.19
2018-08-13T01:59:25.850Z,97815.83
2018-08-13T02:01:38.133Z,97816.27
2018-08-13T02:03:50.591Z,97819.43
2018-08-13T02:06:02.878Z,97818.73
2018-08-13T02:08:15.101Z,97817.02
2018-08-13T02:10:27.332Z,97811.14
2018-08-13T02:12:39.806Z,97806.99
2018-08-13T02:14:51.971Z,97807.48
2018-08-13T02:17:04.840Z,97804.37
2018-08-13T02:19:17.119Z,97806.17
2018-08-13T02:21:29.343Z,97807.30
2018-08-13T02:23:41.594Z,97813.76
2018-08-13T02:25:53.882Z,97810.12
2018-08-13T02:28:06.137Z,97809.37
2018-08-13T02:30:18.359Z,97814.67
2018-08-13T02:32:30.567Z,97814.09
2018-08-13T02:34:42.783Z,97813.48
2018-08-13T02:36:55.017Z,97808.09
2018-08-13T02:39:09.196Z,97808.79
2018-08-13T02:41:21.331Z,97794.64
2018-08-13T02:43:33.574Z,97791.45
2018-08-13T02:45:45.772Z,97793.23
2018-08-13T02:47:57.998Z,97791.45
2018-08-13T02:50:11.929Z,97788.89
2018-08-13T02:52:24.203Z,97787.30
2018-08-13T02:54:36.445Z,97777.36
2018-08-13T02:56:48.667Z,97772.66
2018-08-13T02:59:00.989Z,97781.83
2018-08-13T03:01:13.211Z,97782.16
2018-08-13T03:03:25.478Z,97789.22
2018-08-13T03:05:37.770Z,97782.37
2018-08-13T03:07:50.024Z,97786.16
2018-08-13T03:10:02.308Z,97787.13
2018-08-13T03:12:14.516Z,97785.41
2018-08-13T03:14:26.827Z,97788.30
2018-08-13T03:16:39.107Z,97796.33
2018-08-13T03:18:51.370Z,97797.80
2018-08-13T03:21:03.662Z,97802.23
2018-08-13T03:23:15.923Z,97801.08
2018-08-13T03:25:28.192Z,97803.91
2018-08-13T03:27:40.420Z,97798.30
2018-08-13T03:29:52.676Z,97799.55
2018-08-13T03:32:04.948Z,97792.39
2018-08-13T03:34:17.183Z,97796.59
2018-08-13T03:36:29.402Z,97796.38
2018-08-13T03:38:41.690Z,97797.91
2018-08-13T03:40:54.044Z,97789.77
2018-08-13T03:43:06.306Z,97792.57
2018-08-13T03:45:18.557Z,97790.37
2018-08-13T03:47:30.796Z,97786.16
2018-08-13T03:49:43.007Z,97780.77
2018-08-13T03:51:55.249Z,97778.84
2018-08-13T03:54:07.457Z,97766.67
2018-08-13T03:56:19.714Z,97763.00
2018-08-13T03:58:32.006Z,97765.95
2018-08-13T04:00:44.262Z,97762.79
2018-08-13T04:02:56.579Z,97766.55
2018-08-13T04:05:09.508Z,97763.00
2018-08-13T04:07:21.772Z,97760.84
2018-08-13T04:09:33.987Z,97743.61
2018-08-13T04:11:46.227Z,97741.55
2018-08-13T04:13:58.426Z,97744.92
2018-08-13T04:16:10.614Z,97736.47
2018-08-13T04:18:22.927Z,97732.28
2018-08-13T04:20:35.298Z,97725.17
2018-08-13T04:22:47.566Z,97725.42
2018-08-13T04:24:59.838Z,97728.28
2018-08-13T04:27:12.016Z,97723.59
2018-08-13T04:29:24.384Z,97722.65
2018-08-13T04:31:36.569Z,97719.92
2018-08-13T04:33:48.854Z,97716.38
2018-08-13T04:36:01.114Z,97716.48
2018-08-13T04:38:13.397Z,97706.52
2018-08-13T04:40:25.607Z,97707.37
2018-08-13T04:42:37.822Z,97703.65
2018-08-13T04:44:50.079Z,97692.56
2018-08-13T04:47:02.351Z,97695.16
2018-08-13T04:49:14.586Z,97698.67
2018-08-13T04:51:26.751Z,97696.63
2018-08-13T04:53:38.962Z,97702.75
2018-08-13T04:55:51.206Z,97703.59
2018-08-13T04:58:03.421Z,97703.47
2018-08-13T05:00:15.646Z,97706.48
2018-08-13T05:02:27.874Z,97713.61
2018-08-13T05:04:40.103Z,97718.08
2018-08-13T05:06:52.295Z,97716.14
2018-08-13T05:09:06.795Z,97718.30
2018-08-13T05:11:18.993Z,97721.98
2018-08-13T05:13:31.205Z,97720.67
2018-08-13T05:15:43.427Z,97722.00
2018-08-13T05:17:55.637Z,97716.09
2018-08-13T05:20:08.554Z,97714.14
2018-08-13T05:22:20.763Z,97713.52
2018-08-13T05:24:33.053Z,97708.58
2018-08-13T05:26:45.288Z,97707.79
2018-08-13T05:28:57.507Z,97700.38
2018-08-13T05:31:09.720Z,97704.65
2018-08-13T05:33:21.970Z,97704.68
2018-08-13T05:35:34.287Z,97706.83
2018-08-13T05:37:46.462Z,97704.02
2018-08-13T05:39:58.798Z,97709.61
2018-08-13T05:42:11.194Z,97715.50
2018-08-13T05:44:23.439Z,97717.25
2018-08-13T05:46:35.864Z,97715.90
2018-08-13T05:48:48.191Z,97717.61
2018-08-13T05:51:00.439Z,97722.14
2018-08-13T05:53:12.599Z,97722.68
2018-08-13T05:55:24.816Z,97718.89
2018-08-13T05:57:37.039Z,97720.22
2018-08-13T05:59:49.291Z,97723.64
2018-08-13T06:02:01.511Z,97734.30
2018-08-13T06:04:13.754Z,97737.32
2018-08-13T06:06:25.974Z,97743.05
2018-08-13T06:08:38.255Z,97741.14
2018-08-13T06:10:50.472Z,97733.23
2018-08-13T06:13:02.758Z,97734.06
2018-08-13T06:15:15.014Z,97734.22
2018-08-13T06:17:27.237Z,97738.19
2018-08-13T06:19:39.411Z,97741.73
2018-08-13T06:21:51.638Z,97740.95
2018-08-13T06:24:03.941Z,97744.92
2018-08-13T06:26:16.201Z,97753.33
2018-08-13T06:28:28.470Z,97755.63
2018-08-13T06:30:40.743Z,97765.86
2018-08-13T06:32:52.959Z,97768.09
2018-08-13T06:35:05.207Z,97759.52
2018-08-13T06:37:17.622Z,97763.85
2018-08-13T06:39:29.870Z,97756.37
2018-08-13T06:41:42.086Z,97758.79
2018-08-13T06:43:54.300Z,97762.22
2018-08-13T06:46:06.539Z,97765.51
2018-08-13T06:48:18.759Z,97763.93
2018-08-13T06:50:30.986Z,97772.78
2018-08-13T06:52:43.330Z,97785.67
2018-08-13T06:54:55.539Z,97788.33
2018-08-13T06:57:07.796Z,97795.98
2018-08-13T06:59:19.987Z,97794.05
2018-08-13T07:01:32.222Z,97799.33
2018-08-13T07:03:44.432Z,97807.91
2018-08-13T07:05:56.710Z,97809.69
2018-08-13T07:08:08.889Z,97809.30
2018-08-13T07:10:21.149Z,97814.84
2018-08-13T07:12:33.351Z,97809.36
2018-08-13T07:14:45.578Z,97819.66
2018-08-13T07:16:57.850Z,97819.98
2018-08-13T07:19:10.047Z,97832.82
2018-08-13T07:21:22.358Z,97848.31
2018-08-13T07:23:34.603Z,97860.41
2018-08-13T07:25:46.859Z,97878.09
2018-08-13T07:27:59.149Z,97894.81
2018-08-13T07:30:12.599Z,97891.47
2018-08-13T07:32:24.782Z,97904.90
2018-08-13T07:34:37.003Z,97909.96
2018-08-13T07:36:49.194Z,97910.08
2018-08-13T07:39:01.427Z,97916.48
2018-08-13T07:41:13.607Z,97923.88
2018-08-13T07:43:25.954Z,97922.40
2018-08-13T07:45:38.314Z,97919.75
2018-08-13T07:47:50.457Z,97919.95
2018-08-13T07:50:02.858Z,97922.80
2018-08-13T07:52:15.101Z,97926.94
2018-08-13T07:54:27.343Z,97927.91
2018-08-13T07:56:39.583Z,97922.65
2018-08-13T07:58:52.107Z,97928.96
2018-08-13T08:01:04.343Z,97927.52
2018-08-13T08:03:16.627Z,97924.67
2018-08-13T08:05:28.894Z,97925.34
2018-08-13T08:07:41.210Z,97926.36
2018-08-13T08:09:53.382Z,97917.84
2018-08-13T08:12:05.705Z,97918.75
2018-08-13T08:14:18.163Z,97911.97
2018-08-13T08:16:30.335Z,97905.58
2018-08-13T08:18:42.566Z,97908.38
2018-08-13T08:20:54.880Z,97903.00
2018-08-13T08:23:07.207Z,97900.41
2018-08-13T08:25:20.766Z,97903.95
2018-08-13T08:27:32.993Z,97908.21
2018-08-13T08:29:45.287Z,97910.22
2018-08-13T08:31:57.463Z,97898.57
2018-08-13T08:34:10.161Z,97904.59
2018-08-13T08:36:22.351Z,97920.30
2018-08-13T08:38:34.731Z,97932.87
2018-08-13T08:40:46.977Z,97935.23
2018-08-13T08:42:59.230Z,97931.88
2018-08-13T08:45:18.259Z,97927.66
2018-08-13T08:47:30.503Z,97933.47
2018-08-13T08:49:42.772Z,97938.11
2018-08-13T08:51:55.015Z,97939.11
2018-08-13T08:54:08.054Z,97938.04
2018-08-13T08:56:20.259Z,97937.54
2018-08-13T08:58:32.445Z,97938.32
2018-08-13T09:00:44.718Z,97943.02
2018-08-13T09:02:56.953Z,97939.49
2018-08-13T09:05:09.286Z,97952.63
2018-08-13T09:07:21.542Z,97964.91
2018-08-13T09:09:33.813Z,97959.32
2018-08-13T09:11:46.062Z,97959.80
2018-08-13T09:13:58.290Z,97959.45
2018-08-13T09:16:10.562Z,97958.17
2018-08-13T09:18:34.130Z,97973.23
2018-08-13T09:20:57.730Z,97980.16
2018-08-13T09:23:21.337Z,97995.20
2018-08-13T09:25:45.133Z,97995.89
2018-08-13T09:28:08.772Z,97994.84
2018-08-13T09:30:32.434Z,97985.88
2018-08-13T09:32:56.112Z,98000.09
2018-08-13T09:35:16.162Z,98008.69
2018-08-13T09:37:28.366Z,98007.88
2018-08-13T09:39:40.587Z,98007.69
2018-08-13T09:41:52.830Z,98012.48
2018-08-13T09:44:05.055Z,98011.80
2018-08-13T09:46:17.331Z,98014.63
2018-08-13T09:48:29.781Z,98017.76
2018-08-13T09:50:42.055Z,98019.56
2018-08-13T09:52:54.343Z,98024.20
2018-08-13T09:55:06.745Z,98025.36
2018-08-13T09:57:19.028Z,98022.41
2018-08-13T09:59:31.270Z,98021.59
2018-08-13T10:01:43.514Z,98021.56
2018-08-13T10:03:55.762Z,98021.87
2018-08-13T10:06:08.060Z,98014.55
2018-08-13T10:08:20.554Z,98006.23
2018-08-13T10:10:32.824Z,98007.19
2018-08-13T10:12:45.547Z,98013.91
2018-08-13T10:14:57.838Z,98007.38
2018-08-13T10:17:10.107Z,98004.53
2018-08-13T10:19:22.328Z,98006.98
2018-08-13T10:21:34.589Z,98001.53
2018-08-13T10:23:46.823Z,98000.75
2018-08-13T10:25:59.042Z,97997.44
2018-08-13T10:28:11.273Z,98000.91
2018-08-13T10:30:23.568Z,97994.50
2018-08-13T10:32:35.975Z,97999.05
2018-08-13T10:34:48.268Z,98003.91
2018-08-13T10:37:00.506Z,97998.67
2018-08-13T10:39:13.754Z,98002.48
2018-08-13T10:41:26.058Z,97997.71
2018-08-13T10:43:38.290Z,97998.56
2018-08-13T10:45:50.495Z,97995.20
2018-08-13T10:48:02.770Z,97992.36
2018-08-13T10:50:15.023Z,98000.62
2018-08-13T10:52:27.266Z,97996.30
2018-08-13T10:54:39.499Z,98000.81
2018-08-13T10:56:51.740Z,98005.47
2018-08-13T10:59:04.457Z,98002.16
2018-08-13T11:01:16.844Z,98007.51
2018-08-13T11:03:29.115Z,98002.87
2018-08-13T11:05:41.355Z,97994.95
2018-08-13T11:07:53.618Z,98001.43
2018-08-13T11:10:07.743Z,97995.84
2018-08-13T11:12:20.011Z,97996.37
2018-08-13T11:14:32.242Z,97984.30
2018-08-13T11:16:44.502Z,97985.94
2018-08-13T11:18:56.783Z,97979.83
2018-08-13T11:21:09.079Z,97981.66
2018-08-13T11:23:21.317Z,97978.02
2018-08-13T11:25:33.551Z,97972.56
2018-08-13T11:27:45.769Z,97962.87
2018-08-13T11:29:58.071Z,97956.78
2018-08-13T11:32:10.427Z,97953.66
2018-08-13T11:34:22.646Z,97952.82
2018-08-13T11:36:34.890Z,97945.91
2018-08-13T11:38:47.087Z,97947.10
2018-08-13T11:40:59.329Z,97954.38
2018-08-13T11:43:11.691Z,97951.92
2018-08-13T11:45:23.906Z,97954.73
2018-08-13T11:47:36.699Z,97946.97
2018-08-13T11:49:48.895Z,97944.61
2018-08-13T11:52:01.454Z,97936.71
2018-08-13T11:54:13.683Z,97925.92
2018-08-13T11:56:26.325Z,97925.41
2018-08-13T11:58:38.676Z,97928.22
2018-08-13T12:00:51.087Z,97930.52
2018-08-13T12:03:03.452Z,97931.83
2018-08-13T12:05:16.128Z,97927.54
2018-08-13T12:07:28.342Z,97925.90
2018-08-13T12:09:40.627Z,97922.25
2018-08-13T12:11:52.891Z,97917.25
2018-08-13T12:14:05.204Z,97921.89
2018-08-13T12:16:17.384Z,97918.71
2018-08-13T12:18:29.674Z,97922.53
2018-08-13T12:20:41.943Z,97909.29
2018-08-13T12:22:54.194Z,97906.97
2018-08-13T12:25:06.839Z,97901.31
2018-08-13T12:27:19.082Z,97891.57
2018-08-13T12:29:31.658Z,97897.18
2018-08-13T12:31:43.854Z,97899.80
2018-08-13T12:33:56.083Z,97903.08
2018-08-13T12:36:08.312Z,97901.55
2018-08-13T12:38:20.542Z,97894.55
2018-08-13T12:40:32.862Z,97892.19
2018-08-13T12:42:45.252Z,97887.05
2018-08-13T12:44:57.500Z,97890.98
2018-08-13T12:47:10.571Z,97882.53
2018-08-13T12:49:22.843Z,97877.23
2018-08-13T12:51:35.221Z,97877.78
2018-08-13T12:53:47.412Z,97878.75
2018-08-13T12:55:59.679Z,97876.64
2018-08-13T12:58:11.899Z,97874.13
2018-08-13T13:00:24.192Z,97884.56
2018-08-13T13:02:36.732Z,97884.27
2018-08-13T13:04:49.184Z,97877.38
2018-08-13T13:07:01.766Z,97879.08
2018-08-13T13:09:14.243Z,97881.06
2018-08-13T13:11:26.488Z,97883.73
2018-08-13T13:13:38.755Z,97884.90
2018-08-13T13:15:51.006Z,97879.10
2018-08-13T13:18:03.285Z,97880.88
2018-08-13T13:20:17.671Z,97884.69
2018-08-13T13:22:29.927Z,97883.52
2018-08-13T13:24:42.167Z,97886.64
2018-08-13T13:26:54.372Z,97886.64
2018-08-13T13:29:06.666Z,97876.08
2018-08-13T13:31:18.871Z,97866.87
2018-08-13T13:33:31.459Z,97865.50
2018-08-13T13:35:43.689Z,97867.03
2018-08-13T13:37:55.940Z,97876.85
2018-08-13T13:40:09.996Z,97872.77
2018-08-13T13:42:22.270Z,97869.98
2018-08-13T13:44:34.540Z,97869.84
2018-08-13T13:46:46.776Z,97868.94
2018-08-13T13:48:59.015Z,97862.19
2018-08-13T13:51:11.328Z,97861.48
2018-08-13T13:53:23.552Z,97859.73
2018-08-13T13:55:35.867Z,97850.80
2018-08-13T13:57:48.104Z,97839.27
2018-08-13T14:00:00.383Z,97837.52
2018-08-13T14:02:12.674Z,97840.76
2018-08-13T14:04:24.948Z,97833.02
2018-08-13T14:06:37.217Z,97832.52
2018-08-13T14:08:49.516Z,97839.17
2018-08-13T14:11:01.786Z,97840.83
2018-08-13T14:13:14.109Z,97839.07
2018-08-13T14:15:26.474Z,97836.42
2018-08-13T14:17:38.876Z,97836.94
2018-08-13T14:19:51.014Z,97842.55
2018-08-13T14:22:03.523Z,97831.86
2018-08-13T14:24:15.706Z,97828.25
2018-08-13T14:26:27.950Z,97831.05
2018-08-13T14:28:41.267Z,97822.34
2018-08-13T14:30:53.569Z,97822.58
2018-08-13T14:33:06.371Z,97816.19
2018-08-13T14:35:19.548Z,97815.13
2018-08-13T14:37:31.798Z,97815.06
2018-08-13T14:39:44.145Z,97809.10
2018-08-13T14:41:56.383Z,97808.66
2018-08-13T14:44:08.743Z,97799.88
2018-08-13T14:46:20.979Z,97810.05
2018-08-13T14:48:33.211Z,97804.64
2018-08-13T14:50:45.444Z,97797.36
2018-08-13T14:52:57.707Z,97800.45
2018-08-13T14:55:10.336Z,97801.58
2018-08-13T14:57:22.583Z,97804.44
2018-08-13T14:59:34.899Z,97810.89
2018-08-13T15:01:47.124Z,97806.58
2018-08-13T15:03:59.403Z,97806.81
2018-08-13T15:06:11.633Z,97796.01
2018-08-13T15:08:23.831Z,97805.06
2018-08-13T15:10:36.118Z,97805.73
2018-08-13T15:12:48.424Z,97804.77
2018-08-13T15:15:00.582Z,97807.12
2018-08-13T15:17:12.940Z,97808.53
2018-08-13T15:19:25.162Z,97822.30
2018-08-13T15:21:37.547Z,97831.45
2018-08-13T15:23:49.736Z,97816.33
2018-08-13T15:26:01.992Z,97802.03
2018-08-13T15:28:14.345Z,97800.75
2018-08-13T15:30:26.826Z,97803.69
2018-08-13T15:32:39.234Z,97805.26
2018-08-13T15:34:51.523Z,97805.06
2018-08-13T15:37:03.851Z,97800.89
2018-08-13T15:39:16.052Z,97796.16
2018-08-13T15:41:28.322Z,97791.63
2018-08-13T15:43:40.615Z,97793.21
2018-08-13T15:45:52.858Z,97798.91
2018-08-13T15:48:05.279Z,97802.59
2018-08-13T15:50:18.647Z,97795.95
2018-08-13T15:52:30.913Z,97796.29
2018-08-13T15:54:43.226Z,97798.02
2018-08-13T15:56:55.422Z,97794.68
2018-08-13T15:59:07.646Z,97799.84
2018-08-13T16:01:19.857Z,97783.94
2018-08-13T16:03:33.286Z,97783.25
2018-08-13T16:05:45.661Z,97786.73
2018-08-13T16:07:58.108Z,97785.40
2018-08-13T16:10:11.929Z,97785.56
2018-08-13T16:12:24.171Z,97783.69
2018-08-13T16:14:36.722Z,97778.91
2018-08-13T16:16:48.951Z,97779.25
2018-08-13T16:19:01.256Z,97779.73
2018-08-13T16:21:13.511Z,97781.63
2018-08-13T16:23:25.788Z,97777.13
2018-08-13T16:25:38.208Z,97773.78
2018-08-13T16:27:50.522Z,97772.56
2018-08-13T16:30:05.371Z,97760.86
2018-08-13T16:32:17.656Z,97750.50
2018-08-13T16:34:29.924Z,97759.32
2018-08-13T16:36:42.314Z,97747.91
2018-08-13T16:38:54.574Z,97742.09
2018-08-13T16:41:07.123Z,97736.94
2018-08-13T16:43:19.368Z,97732.96
2018-08-13T16:45:31.696Z,97734.84
2018-08-13T16:47:44.018Z,97741.59
2018-08-13T16:49:56.241Z,97744.16
2018-08-13T16:52:08.463Z,97747.14
2018-08-13T16:54:21.124Z,97747.20
2018-08-13T16:56:38.161Z,97759.48
2018-08-13T16:58:50.487Z,97757.02
2018-08-13T17:01:02.910Z,97764.11
2018-08-13T17:03:15.150Z,97766.25
2018-08-13T17:05:28.374Z,97772.70
2018-08-13T17:07:41.619Z,97781.13
2018-08-13T17:09:53.858Z,97784.42
2018-08-13T17:12:06.109Z,97796.55
2018-08-13T17:14:18.578Z,97795.81
2018-08-13T17:16:30.813Z,97793.05
2018-08-13T17:18:43.088Z,97787.97
2018-08-13T17:20:55.331Z,97788.01
2018-08-13T17:23:07.670Z,97783.26
2018-08-13T17:25:19.990Z,97782.02
2018-08-13T17:27:32.235Z,97776.13
2018-08-13T17:29:44.460Z,97778.94
2018-08-13T17:31:56.778Z,97783.56
2018-08-13T17:34:09.913Z,97779.28
2018-08-13T17:36:22.191Z,97780.22
2018-08-13T17:41:14.642Z,97786.62
2018-08-13T17:43:26.888Z,97792.80
2018-08-13T17:45:39.166Z,97793.64
2018-08-13T17:47:51.412Z,97793.45
2018-08-13T17:50:04.848Z,97799.28
2018-08-13T17:52:17.123Z,97799.66
2018-08-13T17:54:29.347Z,97795.89
2018-08-13T17:56:41.663Z,97798.73
2018-08-13T17:58:53.951Z,97794.77
2018-08-13T18:01:06.681Z,97798.73
2018-08-13T18:03:19.030Z,97804.67
2018-08-13T18:05:31.228Z,97807.63
2018-08-13T18:07:43.727Z,97812.42
2018-08-13T18:09:55.950Z,97807.95
2018-08-13T18:12:08.202Z,97812.97
2018-08-13T18:14:20.512Z,97808.04
2018-08-13T18:16:32.751Z,97809.06
2018-08-13T18:18:45.060Z,97810.86
2018-08-13T18:20:57.343Z,97814.47
2018-08-13T18:23:09.703Z,97811.05
2018-08-13T18:25:22.031Z,97817.65
2018-08-13T18:27:34.311Z,97820.59
2018-08-13T18:29:46.559Z,97822.58
2018-08-13T18:31:58.906Z,97829.55
2018-08-13T18:34:11.123Z,97830.22
2018-08-13T18:36:23.424Z,97833.03
2018-08-13T18:38:35.761Z,97839.86
2018-08-13T18:40:48.019Z,97837.37
2018-08-13T18:43:00.363Z,97839.38
2018-08-13T18:45:12.666Z,97849.78
2018-08-13T18:47:24.991Z,97854.09
2018-08-13T18:49:37.323Z,97850.13
2018-08-13T18:51:49.695Z,97851.78
2018-08-13T18:54:02.058Z,97853.42
2018-08-13T18:56:14.383Z,97858.06
2018-08-13T18:58:26.674Z,97864.48
2018-08-13T19:00:38.977Z,97870.41
2018-08-13T19:02:51.287Z,97879.33
2018-08-13T19:05:03.897Z,97885.26
2018-08-13T19:07:16.222Z,97891.68
2018-08-13T19:09:28.459Z,97889.72
2018-08-13T19:11:40.797Z,97887.40
2018-08-13T19:13:53.186Z,97893.50
2018-08-13T19:16:05.524Z,97893.50
2018-08-13T19:18:17.923Z,97898.59
2018-08-13T19:20:30.151Z,97890.36
2018-08-13T19:22:43.034Z,97896.59
2018-08-13T19:24:55.632Z,97893.81
2018-08-13T19:27:08.022Z,97899.23
2018-08-13T19:29:20.307Z,97899.91
2018-08-13T19:31:32.648Z,97909.14
2018-08-13T19:33:44.904Z,97904.50
2018-08-13T19:35:57.308Z,97902.50
2018-08-13T19:38:09.623Z,97903.32
2018-08-13T19:40:23.396Z,97900.86
2018-08-13T19:42:35.762Z,97902.81
2018-08-13T19:44:48.085Z,97898.21
2018-08-13T19:47:00.490Z,97904.31
2018-08-13T19:49:12.750Z,97904.48
2018-08-13T19:51:25.024Z,97907.39
2018-08-13T19:53:37.341Z,97907.20
2018-08-13T19:55:49.621Z,97907.20
2018-08-13T19:58:01.941Z,97902.07
2018-08-13T20:00:18.733Z,97909.02
2018-08-13T20:02:31.305Z,97901.25
2018-08-13T20:04:43.650Z,97898.47
2018-08-13T20:06:55.957Z,97904.39
2018-08-13T20:09:09.507Z,97899.80
2018-08-13T20:11:21.822Z,97902.59
2018-08-13T20:13:34.120Z,97906.39
2018-08-13T20:15:46.359Z,97902.08
2018-08-13T20:17:58.679Z,97897.16
2018-08-13T20:20:15.146Z,97900.13
2018-08-13T20:22:27.408Z,97905.22
2018-08-13T20:24:39.807Z,97909.86
2018-08-13T20:26:52.048Z,97914.35
2018-08-13T20:29:04.325Z,97914.35
2018-08-13T20:31:16.608Z,97910.72
2018-08-13T20:33:28.891Z,97913.36
2018-08-13T20:35:41.181Z,97907.45
2018-08-13T20:37:53.466Z,97919.95
2018-08-13T20:40:07.944Z,97924.91
2018-08-13T20:42:20.216Z,97933.09
2018-08-13T20:44:32.551Z,97925.85
2018-08-13T20:46:45.213Z,97921.55
2018-08-13T20:48:57.470Z,97920.07
2018-08-13T20:51:09.775Z,97924.98
2018-08-13T20:53:21.972Z,97925.81
2018-08-13T20:55:34.245Z,97930.44
2018-08-13T20:57:47.581Z,97932.89
2018-08-13T20:59:59.884Z,97936.20
2018-08-13T21:02:12.134Z,97933.38
2018-08-13T21:04:24.446Z,97938.83
2018-08-13T21:06:36.760Z,97937.66
2018-08-13T21:08:49.122Z,97939.34
2018-08-13T21:11:01.374Z,97939.99
2018-08-13T21:13:13.635Z,97936.72
2018-08-13T21:15:25.982Z,97946.27
2018-08-13T21:17:38.359Z,97940.17
2018-08-13T21:19:50.542Z,97941.67
2018-08-13T21:22:02.815Z,97946.61
2018-08-13T21:24:15.040Z,97944.19
2018-08-13T21:26:27.363Z,97949.78
2018-08-13T21:28:39.567Z,97951.09
2018-08-13T21:30:51.846Z,97952.38
2018-08-13T21:33:04.119Z,97955.19
2018-08-13T21:35:20.683Z,97957.14
2018-08-13T21:37:33.271Z,97966.05
2018-08-13T21:39:45.587Z,97965.23
2018-08-13T21:41:57.856Z,97959.63
2018-08-13T21:44:10.134Z,97960.27
2018-08-13T21:46:22.368Z,97959.12
2018-08-13T21:48:34.647Z,97959.77
2018-08-13T21:50:46.886Z,97964.41
2018-08-13T21:52:59.106Z,97965.05
2018-08-13T21:55:11.401Z,97961.45
2018-08-13T21:57:24.514Z,97962.92
2018-08-13T21:59:37.545Z,97963.75
2018-08-13T22:01:49.929Z,97967.09
2018-08-13T22:04:02.188Z,97970.34
2018-08-13T22:06:14.407Z,97977.33
2018-08-13T22:08:26.702Z,97979.97
2018-08-13T22:10:38.995Z,97977.02
2018-08-13T22:12:51.251Z,97984.11
2018-08-13T22:15:14.230Z,97983.26
2018-08-13T22:17:26.490Z,97991.17
2018-08-13T22:19:38.823Z,97990.84
2018-08-13T22:21:51.052Z,97990.34
2018-08-13T22:24:14.542Z,97992.34
2018-08-13T22:26:26.862Z,97995.17
2018-08-13T22:28:39.184Z,97998.45
2018-08-13T22:30:51.389Z,97993.85
2018-08-13T22:33:03.855Z,97996.48
2018-08-13T22:35:16.166Z,97988.89
2018-08-13T22:37:28.405Z,97994.80
2018-08-13T22:39:40.750Z,98002.39
2018-08-13T22:41:53.031Z,98003.52
2018-08-13T22:44:05.283Z,98007.75
2018-08-13T22:46:17.591Z,98002.48
2018-08-13T22:48:29.878Z,98004.47
2018-08-13T22:50:42.107Z,98005.28
2018-08-13T22:52:54.352Z,98009.23
2018-08-13T22:55:08.654Z,98016.42
2018-08-13T22:57:20.894Z,98006.53
2018-08-13T22:59:33.088Z,98018.73
2018-08-13T23:01:46.686Z,98023.65
2018-08-13T23:03:58.949Z,98024.31
2018-08-13T23:06:11.241Z,98017.86
2018-08-13T23:08:23.464Z,98023.80
2018-08-13T23:10:35.667Z,98025.23
2018-08-13T23:12:49.199Z,98022.88
2018-08-13T23:15:01.419Z,98027.35
2018-08-13T23:17:13.706Z,98030.18
2018-08-13T23:19:25.926Z,98033.13
2018-08-13T23:21:38.209Z,98035.26
2018-08-13T23:23:50.426Z,98043.83
2018-08-13T23:26:02.670Z,98042.98
2018-08-13T23:28:14.920Z,98046.77
2018-08-13T23:30:27.515Z,98045.95
2018-08-13T23:32:39.721Z,98051.03
2018-08-13T23:34:51.931Z,98052.98
2018-08-13T23:37:04.163Z,98052.41
2018-08-13T23:39:16.411Z,98053.50
2018-08-13T23:41:29.103Z,98051.30
2018-08-13T23:43:41.347Z,98057.70
2018-08-13T23:45:53.598Z,98060.44
2018-08-13T23:48:05.813Z,98059.58
2018-08-13T23:50:19.810Z,98059.38
2018-08-13T23:52:32.069Z,98055.40
2018-08-13T23:54:44.302Z,98052.23
2018-08-13T23:56:56.561Z,98055.52
2018-08-13T23:59:08.839Z,98051.70
